Time;durP1;ratioP1;P1;durP2;ratioP2;P2;SDS_P1;SDS_P2;PMS_P1;PMS_P2;Temp;Humidity;BMP_temperature;BMP_pressure;BME280_temperature;BME280_humidity;BME280_pressure;Samples;Min_cycle;Max_cycle;Signal;HPM_P1;HPM_P2
2022/07/14 00:01:58;;;;;;;7.05;1.60;;;;;;;25.85;45.96;101260.88;4910576;29;20051;-68
2022/07/14 00:04:43;;;;;;;8.05;2.30;;;;;;;25.83;45.49;101263.25;4896338;29;20055;-66
2022/07/14 00:07:29;;;;;;;8.50;1.88;;;;;;;25.79;45.95;101262.47;4902095;29;20063;-66
2022/07/14 00:10:14;;;;;;;7.78;2.60;;;;;;;25.76;46.50;101263.28;4914951;29;20416;-67
2022/07/14 00:13:00;;;;;;;10.10;2.45;;;;;;;25.75;46.23;101261.72;4895940;29;20400;-69
2022/07/14 00:15:44;;;;;;;4.57;2.28;;;;;;;25.53;45.79;101255.41;4896529;29;20055;-67
2022/07/14 00:18:30;;;;;;;9.75;2.60;;;;;;;25.42;46.15;101254.63;4890396;29;20056;-68
2022/07/14 00:21:16;;;;;;;6.50;2.15;;;;;;;25.23;46.59;101252.31;4909730;29;20064;-68
2022/07/14 00:24:01;;;;;;;14.73;3.15;;;;;;;25.21;47.11;101249.13;4913336;29;20539;-68
2022/07/14 00:26:45;;;;;;;9.00;2.35;;;;;;;25.19;47.34;101255.13;4896266;29;20048;-68
2022/07/14 00:29:31;;;;;;;21.23;4.43;;;;;;;25.11;47.29;101257.13;4901361;29;20043;-67
2022/07/14 00:32:15;;;;;;;4.70;2.13;;;;;;;24.97;48.15;101256.34;4895671;29;20044;-68
2022/07/14 00:35:01;;;;;;;13.50;2.40;;;;;;;24.90;47.99;101259.13;4898324;29;20067;-68
2022/07/14 00:37:46;;;;;;;5.90;2.25;;;;;;;25.19;47.89;101260.69;4890786;29;20059;-68
2022/07/14 00:40:31;;;;;;;4.10;1.95;;;;;;;25.30;47.44;101253.09;4895937;29;20048;-68
2022/07/14 00:43:16;;;;;;;5.47;2.35;;;;;;;25.45;47.19;101253.81;4895563;29;20412;-67
2022/07/14 00:46:01;;;;;;;5.55;2.65;;;;;;;25.54;46.67;101265.34;4895583;29;20055;-67
2022/07/14 00:48:47;;;;;;;7.55;1.98;;;;;;;25.58;46.63;101262.56;4918232;29;20047;-69
2022/07/14 00:51:32;;;;;;;6.30;2.05;;;;;;;25.57;46.37;101252.63;4894797;29;20055;-68
2022/07/14 00:54:26;;;;;;;5.32;1.98;;;;;;;25.48;46.46;101262.19;4898225;29;20060;-68
2022/07/14 00:57:12;;;;;;;5.63;1.88;;;;;;;25.36;46.72;101256.25;4917513;29;20048;-66
2022/07/14 00:59:57;;;;;;;8.35;2.15;;;;;;;25.35;46.72;101252.66;4899706;29;20063;-67
2022/07/14 01:02:44;;;;;;;8.18;1.77;;;;;;;25.40;46.72;101257.81;4912783;29;20512;-67
2022/07/14 01:05:29;;;;;;;6.57;2.40;;;;;;;25.42;46.18;101252.66;4899663;29;20746;-66
2022/07/14 01:08:14;;;;;;;5.65;2.30;;;;;;;25.27;46.11;101248.34;4902319;29;20052;-69
2022/07/14 01:10:59;;;;;;;8.15;2.03;;;;;;;25.34;46.62;101253.88;4901674;29;20052;-68
2022/07/14 01:13:45;;;;;;;6.13;1.80;;;;;;;25.45;46.22;101243.47;4905979;29;20047;-68
2022/07/14 01:16:30;;;;;;;7.10;2.20;;;;;;;25.40;46.25;101237.53;4911489;29;20063;-69
2022/07/14 01:19:15;;;;;;;6.53;1.67;;;;;;;25.32;46.30;101245.13;4899084;29;20064;-69
2022/07/14 01:22:00;;;;;;;4.90;2.58;;;;;;;25.42;46.14;101244.31;4898671;29;20051;-67
2022/07/14 01:24:45;;;;;;;8.27;1.95;;;;;;;25.34;45.81;101241.94;4899325;29;20055;-68
2022/07/14 01:27:30;;;;;;;7.68;1.90;;;;;;;25.11;46.81;101243.19;4898926;29;20056;-67
2022/07/14 01:30:15;;;;;;;8.77;2.25;;;;;;;25.02;47.13;101245.63;4897982;29;20056;-67
2022/07/14 01:33:00;;;;;;;6.82;1.90;;;;;;;24.98;47.18;101239.28;4898719;29;20048;-68
2022/07/14 01:35:45;;;;;;;16.33;2.85;;;;;;;24.68;47.36;101245.25;4898868;29;20404;-67
2022/07/14 01:38:30;;;;;;;6.80;2.80;;;;;;;24.44;48.40;101239.66;4898721;29;20051;-66
2022/07/14 01:41:15;;;;;;;4.57;2.10;;;;;;;24.53;48.03;101240.84;4898281;29;20055;-67
2022/07/14 01:44:00;;;;;;;7.13;1.92;;;;;;;24.42;48.20;101239.28;4898723;29;20055;-66
2022/07/14 01:46:46;;;;;;;4.75;1.70;;;;;;;24.42;48.69;101237.28;4898091;29;20539;-66
2022/07/14 01:49:31;;;;;;;8.82;2.08;;;;;;;24.66;48.21;101244.84;4891108;29;20060;-67
2022/07/14 01:52:19;;;;;;;5.80;1.98;;;;;;;24.44;48.12;101231.31;4910008;29;20160;-66
2022/07/14 01:55:05;;;;;;;8.25;1.75;;;;;;;24.70;47.82;101228.94;4901622;29;20075;-67
2022/07/14 01:57:50;;;;;;;8.75;1.60;;;;;;;24.82;47.50;101226.94;4903358;29;20048;-67
2022/07/14 02:00:36;;;;;;;4.55;2.50;;;;;;;24.95;46.98;101223.34;4911711;29;20428;-67
2022/07/14 02:03:22;;;;;;;15.68;1.95;;;;;;;24.97;46.82;101222.97;4897993;29;20047;-68
2022/07/14 02:06:07;;;;;;;4.38;1.58;;;;;;;25.00;46.59;101220.16;4898491;29;20083;-67
2022/07/14 02:08:52;;;;;;;6.70;1.48;;;;;;;24.90;46.73;101211.84;4898383;29;20511;-67
2022/07/14 02:14:45;;;;;;;2.90;1.48;;;;;;;24.71;47.23;101208.28;4896836;29;20047;-67
2022/07/14 02:17:30;;;;;;;6.43;1.58;;;;;;;24.75;47.17;101201.91;4878958;29;20291;-67
2022/07/14 02:20:16;;;;;;;8.65;1.55;;;;;;;24.75;47.10;101204.69;4896034;29;20047;-67
2022/07/14 02:23:01;;;;;;;2.42;1.63;;;;;;;24.85;46.86;101212.22;4896859;29;20056;-67
2022/07/14 02:25:46;;;;;;;7.57;1.55;;;;;;;24.83;46.91;101204.28;4898669;29;20527;-67
2022/07/14 02:28:31;;;;;;;2.25;1.17;;;;;;;24.93;46.56;101213.84;4896702;29;20408;-67
2022/07/14 02:31:17;;;;;;;8.07;1.73;;;;;;;24.80;46.63;101212.63;4897148;29;20059;-68
2022/07/14 02:34:03;;;;;;;3.55;1.50;;;;;;;24.70;47.43;101212.25;4895870;29;20491;-65
2022/07/14 02:36:48;;;;;;;3.80;1.70;;;;;;;24.59;47.61;101208.66;4896676;29;20047;-65
2022/07/14 02:39:33;;;;;;;8.95;1.23;;;;;;;24.60;47.53;101210.25;4890784;29;20056;-66
2022/07/14 02:42:18;;;;;;;2.90;1.42;;;;;;;24.71;47.69;101207.47;4896584;29;20051;-67
2022/07/14 02:45:03;;;;;;;9.25;2.10;;;;;;;24.33;48.24;101200.72;4896521;29;20400;-66
2022/07/14 02:47:48;;;;;;;26.65;5.72;;;;;;;23.80;49.40;101201.44;4878206;29;20539;-67
2022/07/14 02:50:36;;;;;;;26.48;5.07;;;;;;;24.24;48.86;101198.34;4878331;29;20049;-67
2022/07/14 02:53:22;;;;;;;22.98;2.40;;;;;;;24.52;48.28;101200.34;4896105;29;20415;-66
2022/07/14 02:56:08;;;;;;;9.52;1.70;;;;;;;24.59;48.27;101196.75;4896408;29;20052;-67
2022/07/14 02:58:56;;;;;;;8.82;1.65;;;;;;;24.45;48.16;101189.22;4896350;29;20047;-65
2022/07/14 03:01:41;;;;;;;8.32;1.80;;;;;;;24.68;47.70;101189.59;4895967;29;20075;-67
2022/07/14 03:04:28;;;;;;;6.10;1.35;;;;;;;24.88;47.16;101192.78;4897386;29;20047;-67
2022/07/14 03:07:14;;;;;;;3.45;1.40;;;;;;;25.02;46.76;101192.72;4896955;29;20409;-66
2022/07/14 03:09:59;;;;;;;5.53;1.40;;;;;;;24.97;46.83;101189.56;4896512;29;20047;-67
2022/07/14 03:12:44;;;;;;;5.88;1.85;;;;;;;24.82;47.47;101182.41;4895538;29;20520;-66
2022/07/14 03:15:29;;;;;;;7.90;1.48;;;;;;;24.93;47.36;101186.00;4896116;29;20051;-67
2022/07/14 03:18:14;;;;;;;7.03;1.80;;;;;;;24.83;47.50;101179.25;4852280;29;1312456;-67
2022/07/14 03:21:03;;;;;;;4.72;2.03;;;;;;;24.96;47.47;101179.63;4898165;29;20040;-66
2022/07/14 03:23:48;;;;;;;4.88;2.17;;;;;;;25.17;46.87;101176.78;4890825;29;20052;-67
2022/07/14 03:26:39;;;;;;;3.10;1.60;;;;;;;25.51;46.34;101183.38;4896290;29;20048;-67
2022/07/14 03:29:25;;;;;;;7.18;1.27;;;;;;;25.66;45.84;101180.53;4896684;29;20071;-65
2022/07/14 03:32:12;;;;;;;9.90;2.70;;;;;;;25.70;45.72;101176.53;4896759;29;20523;-68
2022/07/14 03:34:59;;;;;;;7.38;1.67;;;;;;;25.77;45.60;101181.28;4896735;29;20052;-68
2022/07/14 03:37:44;;;;;;;13.15;1.63;;;;;;;25.83;45.28;101179.66;4896511;29;20048;-65
2022/07/14 03:40:29;;;;;;;13.25;1.77;;;;;;;25.78;45.54;101178.09;4896824;29;20053;-69
2022/07/14 03:43:14;;;;;;;9.48;1.67;;;;;;;25.79;45.26;101178.88;4896536;29;20489;-68
2022/07/14 03:45:59;;;;;;;13.35;1.60;;;;;;;25.90;44.95;101185.19;4914543;29;20055;-67
2022/07/14 03:48:44;;;;;;;6.45;2.38;;;;;;;25.96;44.85;101178.75;4896436;29;20071;-67
2022/07/14 03:51:29;;;;;;;16.67;1.60;;;;;;;26.00;44.66;101178.75;4910522;29;20508;-68
2022/07/14 03:54:15;;;;;;;13.95;1.80;;;;;;;26.03;44.58;101180.69;4899633;29;20048;-67
2022/07/14 03:56:59;;;;;;;14.85;3.63;;;;;;;26.04;44.64;101175.94;4911673;29;20044;-67
2022/07/14 03:59:45;;;;;;;8.93;1.48;;;;;;;26.05;44.65;101178.31;4895535;29;20040;-68
2022/07/14 04:02:33;;;;;;;7.40;1.90;;;;;;;26.02;44.50;101175.53;4894246;29;20091;-65
2022/07/14 04:05:18;;;;;;;7.35;1.40;;;;;;;25.96;44.63;101172.38;4895645;29;20416;-66
2022/07/14 04:08:03;;;;;;;13.65;1.85;;;;;;;25.98;44.30;101170.00;4895799;29;20048;-66
2022/07/14 04:10:57;;;;;;;8.18;2.55;;;;;;;25.97;44.24;101173.97;4895851;29;20496;-66
2022/07/14 04:13:43;;;;;;;8.27;2.05;;;;;;;25.96;44.37;101181.53;4890027;29;20412;-66
2022/07/14 04:16:29;;;;;;;8.40;1.70;;;;;;;25.96;44.37;101173.19;4921902;23;20055;-83
2022/07/14 04:19:15;;;;;;;17.85;1.90;;;;;;;25.97;44.09;101177.56;4937089;29;20059;-83
2022/07/14 04:22:01;;;;;;;9.25;1.65;;;;;;;26.01;44.56;101176.75;4942725;29;20046;-83
2022/07/14 04:24:46;;;;;;;8.93;1.58;;;;;;;26.03;44.43;101185.47;4961585;28;20070;-83
2022/07/14 04:27:32;;;;;;;11.80;1.67;;;;;;;26.05;44.21;101174.72;4931486;29;20058;-84
2022/07/14 04:30:19;;;;;;;9.27;2.67;;;;;;;26.10;44.59;101179.88;4923055;29;20063;-83
2022/07/14 04:33:05;;;;;;;3.97;1.35;;;;;;;26.20;44.90;101165.06;4919878;29;20051;-83
2022/07/14 04:35:51;;;;;;;10.55;1.40;;;;;;;26.21;44.80;101164.63;4928284;29;20055;-83
2022/07/14 04:38:37;;;;;;;8.48;1.52;;;;;;;26.23;44.72;101176.19;4933996;29;20047;-82
2022/07/14 04:41:22;;;;;;;12.18;2.35;;;;;;;26.25;44.53;101165.44;4936650;29;20055;-83
2022/07/14 04:44:06;;;;;;;15.95;1.58;;;;;;;26.28;44.69;101172.16;4928973;29;20242;-82
2022/07/14 04:46:53;;;;;;;15.00;2.25;;;;;;;26.29;44.71;101174.56;4939013;29;20075;-82
2022/07/14 04:52:47;;;;;;;24.83;2.05;;;;;;;26.30;45.23;101170.56;4930754;29;20055;-83
2022/07/14 04:55:53;;;;;;;11.75;1.48;;;;;;;26.31;45.37;101177.72;4914179;29;20056;-84
2022/07/14 04:59:01;;;;;;;19.75;2.00;;;;;;;26.33;45.57;101178.09;4940815;29;20048;-83
2022/07/14 05:01:47;;;;;;;13.50;1.58;;;;;;;26.30;45.54;101181.72;4924272;29;20055;-84
2022/07/14 05:04:32;;;;;;;15.95;3.03;;;;;;;26.32;45.71;101181.28;4946480;29;20051;-83
2022/07/14 05:07:19;;;;;;;9.10;2.28;;;;;;;26.33;45.80;101178.09;4932944;29;20067;-84
2022/07/14 05:10:11;;;;;;;21.25;3.55;;;;;;;26.31;45.47;101179.72;4947385;28;20523;-84
2022/07/14 05:12:56;;;;;;;10.65;1.73;;;;;;;26.25;45.63;101184.97;4926987;29;20040;-83
2022/07/14 05:15:41;;;;;;;7.50;2.00;;;;;;;26.21;45.88;101189.72;4926844;29;20055;-84
2022/07/14 05:18:26;;;;;;;12.93;1.65;;;;;;;26.14;45.48;101195.38;4929354;29;20051;-83
2022/07/14 05:21:11;;;;;;;10.80;1.58;;;;;;;26.10;45.28;101199.38;4930044;29;20055;-81
2022/07/14 05:23:57;;;;;;;5.82;1.95;;;;;;;26.04;45.33;101195.44;4936868;29;20032;-82
2022/07/14 05:26:42;;;;;;;8.48;1.58;;;;;;;26.06;45.10;101198.63;4950039;28;20790;-82
2022/07/14 05:29:27;;;;;;;15.30;1.75;;;;;;;26.07;44.90;101194.59;4946042;28;20520;-82
2022/07/14 05:32:12;;;;;;;12.02;1.67;;;;;;;26.12;45.16;101194.16;4928254;29;20048;-82
2022/07/14 05:34:58;;;;;;;11.95;1.50;;;;;;;26.20;44.52;101199.31;4928834;29;20051;-82
2022/07/14 05:37:44;;;;;;;4.35;1.80;;;;;;;26.27;44.91;101195.69;4928026;29;20417;-82
2022/07/14 05:40:29;;;;;;;10.55;1.50;;;;;;;26.31;44.92;101200.03;4924961;29;20043;-82
2022/07/14 05:43:14;;;;;;;7.45;1.90;;;;;;;26.32;44.89;101198.03;4938962;29;20056;-82
2022/07/14 05:46:06;;;;;;;8.27;1.65;;;;;;;26.36;44.78;101191.22;4932470;29;20047;-82
2022/07/14 05:48:52;;;;;;;9.20;2.30;;;;;;;26.39;44.78;101189.63;4933146;29;20058;-83
2022/07/14 05:51:38;;;;;;;8.85;1.65;;;;;;;26.42;44.73;101188.78;4928482;29;20051;-82
2022/07/14 05:54:23;;;;;;;17.85;3.17;;;;;;;26.47;44.63;101195.91;4928304;29;20051;-81
2022/07/14 05:57:13;;;;;;;17.77;2.25;;;;;;;26.37;44.93;101192.00;4922315;29;20063;-81
2022/07/14 05:59:58;;;;;;;12.13;2.08;;;;;;;26.47;44.72;101198.69;4920165;29;20427;-82
2022/07/14 06:02:43;;;;;;;9.45;1.77;;;;;;;26.45;44.66;101199.13;4919187;29;20039;-83
2022/07/14 06:05:36;;;;;;;19.63;2.30;;;;;;;26.50;44.66;101198.69;4929208;29;20055;-82
2022/07/14 06:08:21;;;;;;;18.25;2.17;;;;;;;26.50;44.56;101207.06;4941435;29;20070;-83
2022/07/14 06:11:07;;;;;;;26.70;2.80;;;;;;;26.56;44.65;101216.56;4934453;29;20054;-82
2022/07/14 06:13:51;;;;;;;36.08;2.90;;;;;;;26.57;45.16;101204.19;4938585;29;20036;-83
2022/07/14 06:16:37;;;;;;;15.45;3.28;;;;;;;26.62;45.32;101205.72;4928272;29;20051;-83
2022/07/14 06:19:21;;;;;;;22.40;2.78;;;;;;;26.66;45.82;101206.50;4939745;29;20051;-83
2022/07/14 06:22:07;;;;;;;26.73;2.65;;;;;;;26.61;46.79;101215.31;4936213;29;20055;-84
2022/07/14 06:24:53;;;;;;;17.70;2.35;;;;;;;26.62;46.31;101208.53;4938387;29;20076;-84
2022/07/14 06:27:42;;;;;;;14.38;3.10;;;;;;;26.60;45.38;101206.16;4927377;29;20047;-84
2022/07/14 06:30:28;;;;;;;12.00;3.80;;;;;;;26.61;45.56;101206.97;4949834;28;20036;-84
2022/07/14 06:33:13;;;;;;;12.85;2.78;;;;;;;26.64;45.88;101211.69;4937047;29;20052;-85
2022/07/14 06:35:58;;;;;;;11.98;2.20;;;;;;;27.39;44.27;101214.50;4933920;29;20047;-83
2022/07/14 06:38:43;;;;;;;9.60;2.28;;;;;;;27.33;43.92;101216.94;4922099;29;20472;-83
2022/07/14 06:41:28;;;;;;;16.75;2.40;;;;;;;28.06;42.27;101221.97;4932669;29;20043;-83
2022/07/14 06:44:14;;;;;;;10.65;1.98;;;;;;;27.81;42.66;101222.34;4934976;29;20054;-83
2022/07/14 06:47:03;;;;;;;6.78;2.20;;;;;;;27.49;42.86;101219.97;4953525;28;20047;-83
2022/07/14 06:49:48;;;;;;;17.42;3.83;;;;;;;27.24;44.94;101225.84;4960443;28;20063;-83
2022/07/14 06:52:35;;;;;;;29.17;3.20;;;;;;;27.13;44.94;101221.59;4948387;29;20040;-82
2022/07/14 06:55:20;;;;;;;12.60;3.20;;;;;;;27.35;44.91;101219.34;4931420;29;20047;-82
2022/07/14 06:58:05;;;;;;;6.70;2.45;;;;;;;27.42;44.81;101227.63;4937469;29;20054;-83
2022/07/14 07:00:50;;;;;;;12.63;2.38;;;;;;;26.83;45.40;101220.28;4936641;29;20054;-83
2022/07/14 07:03:34;;;;;;;17.50;2.53;;;;;;;27.22;44.29;101219.91;4938760;29;20040;-82
2022/07/14 07:09:23;;;;;;;13.32;2.72;;;;;;;27.23;41.71;101221.47;4941736;29;20040;-81
2022/07/14 07:12:08;;;;;;;9.25;2.42;;;;;;;27.37;41.38;101219.72;4943789;29;20059;-80
2022/07/14 07:14:52;;;;;;;8.50;2.30;;;;;;;27.79;40.32;101233.16;4940222;29;20063;-81
2022/07/14 07:17:37;;;;;;;16.45;2.60;;;;;;;28.01;40.18;101220.47;4922131;29;20051;-82
2022/07/14 07:20:22;;;;;;;11.60;3.33;;;;;;;28.21;39.55;101217.00;4930052;29;20059;-82
2022/07/14 07:23:07;;;;;;;14.48;2.85;;;;;;;28.86;37.65;101213.47;4934018;29;20533;-82
2022/07/14 07:25:53;;;;;;;11.77;2.70;;;;;;;28.40;38.59;101213.47;4940315;29;20060;-82
2022/07/14 07:28:38;;;;;;;10.50;2.58;;;;;;;28.05;38.89;101221.19;4944464;29;20051;-83
2022/07/14 07:31:23;;;;;;;9.15;2.08;;;;;;;28.60;37.90;101217.13;4944114;29;20059;-86
2022/07/14 07:34:08;;;;;;;9.07;2.00;;;;;;;28.71;37.46;101212.13;4935942;29;20043;-84
2022/07/14 07:36:52;;;;;;;9.82;1.98;;;;;;;29.30;37.38;101205.84;4923330;29;20055;-82
2022/07/14 07:39:38;;;;;;;20.38;3.78;;;;;;;28.69;39.57;101206.19;4930909;29;20051;-82
2022/07/14 07:42:23;;;;;;;13.15;3.13;;;;;;;28.96;38.88;101206.09;4930911;29;20040;-83
2022/07/14 07:45:09;;;;;;;9.10;2.25;;;;;;;29.30;37.36;101209.41;4929366;29;20414;-83
2022/07/14 07:47:53;;;;;;;7.88;2.15;;;;;;;29.42;37.58;101202.38;4940249;29;20051;-83
2022/07/14 07:50:41;;;;;;;10.70;2.35;;;;;;;29.02;38.18;101201.56;4926013;29;20058;-82
2022/07/14 07:53:26;;;;;;;12.35;2.70;;;;;;;29.52;36.63;101206.97;4936780;29;20051;-83
2022/07/14 07:56:11;;;;;;;9.48;1.65;;;;;;;30.32;35.65;101211.16;4937905;29;20513;-83
2022/07/14 07:58:56;;;;;;;8.38;2.88;;;;;;;31.14;35.46;101201.38;4926939;29;20059;-83
2022/07/14 08:01:41;;;;;;;19.05;2.60;;;;;;;30.86;34.44;101199.34;4925508;29;20409;-83
2022/07/14 08:04:26;;;;;;;6.95;2.20;;;;;;;30.75;36.02;101205.25;4916058;29;20051;-83
2022/07/14 08:07:11;;;;;;;17.08;3.70;;;;;;;30.61;36.14;101193.63;4917855;29;20055;-83
2022/07/14 08:09:56;;;;;;;15.75;2.35;;;;;;;31.81;34.13;101195.78;4931105;28;20084;-82
2022/07/14 08:12:42;;;;;;;15.93;2.95;;;;;;;32.13;33.35;101192.78;4932546;29;20045;-82
2022/07/14 08:15:26;;;;;;;9.07;2.53;;;;;;;30.94;36.44;101192.28;4924355;29;20036;-83
2022/07/14 08:18:12;;;;;;;11.98;2.53;;;;;;;31.05;35.87;101190.00;4920768;29;20051;-80
2022/07/14 08:20:56;;;;;;;8.43;2.65;;;;;;;30.58;36.62;101190.44;4926265;29;20512;-80
2022/07/14 08:23:41;;;;;;;12.20;2.30;;;;;;;30.30;37.79;101193.97;4913884;29;20513;-80
2022/07/14 08:26:26;;;;;;;18.90;2.75;;;;;;;30.91;36.47;101193.19;4918077;29;20056;-80
2022/07/14 08:29:11;;;;;;;17.83;3.10;;;;;;;30.50;37.10;101185.47;4921867;29;20052;-80
2022/07/14 08:31:55;;;;;;;10.88;2.70;;;;;;;31.83;34.69;101190.50;4922406;29;20047;-80
2022/07/14 08:34:41;;;;;;;7.82;2.50;;;;;;;32.97;32.54;101193.09;4916678;29;20039;-80
2022/07/14 08:37:27;;;;;;;9.57;2.17;;;;;;;35.46;28.76;101196.50;4930644;29;20055;-80
2022/07/14 08:40:14;;;;;;;12.38;2.80;;;;;;;36.83;25.70;101207.91;4938963;29;20055;-80
2022/07/14 08:42:59;;;;;;;5.88;2.33;;;;;;;40.24;21.84;101208.28;4924409;29;20060;-80
2022/07/14 08:45:45;;;;;;;6.90;2.15;;;;;;;38.81;23.00;101201.53;4923886;29;20430;-80
2022/07/14 08:48:30;;;;;;;8.95;2.70;;;;;;;38.79;23.73;101197.66;4920791;29;20055;-80
2022/07/14 08:51:17;;;;;;;5.40;1.85;;;;;;;40.67;20.89;101202.53;4932541;29;20055;-80
2022/07/14 08:54:02;;;;;;;11.82;1.88;;;;;;;42.02;19.25;101207.88;4926732;29;20054;-80
2022/07/14 08:56:46;;;;;;;4.95;2.40;;;;;;;40.11;21.18;101203.00;4929885;29;20051;-80
2022/07/14 08:59:31;;;;;;;10.07;1.90;;;;;;;38.06;22.66;101188.16;4932261;29;20059;-80
2022/07/14 09:02:16;;;;;;;6.47;1.52;;;;;;;38.40;22.85;101188.63;4933334;29;20516;-83
2022/07/14 09:05:01;;;;;;;11.88;1.88;;;;;;;40.14;19.88;101190.56;4937681;29;20067;-85
2022/07/14 09:07:52;;;;;;;7.25;1.75;;;;;;;41.71;18.51;101194.63;4921360;29;20083;-82
2022/07/14 09:10:39;;;;;;;7.05;1.92;;;;;;;40.18;19.58;101181.81;4936362;29;20520;-82
2022/07/14 09:13:24;;;;;;;12.80;1.73;;;;;;;37.73;21.21;101179.13;4929968;29;20433;-81
2022/07/14 09:16:22;;;;;;;8.77;1.30;;;;;;;42.85;16.34;101195.34;4936462;29;20505;-81
2022/07/14 09:19:13;;;;;;;10.75;1.20;;;;;;;40.47;18.53;101190.00;4933027;29;20159;-81
2022/07/14 09:21:59;;;;;;;7.18;1.52;;;;;;;41.31;18.32;101188.13;4924239;29;20060;-81
2022/07/14 09:24:51;;;;;;;6.85;1.83;;;;;;;41.17;17.67;101182.69;4923409;29;20051;-81
2022/07/14 09:27:37;;;;;;;6.65;1.10;;;;;;;41.48;17.21;101184.53;4947486;28;20063;-81
2022/07/14 09:30:23;;;;;;;12.68;1.20;;;;;;;47.18;11.81;101193.13;4924692;29;20067;-81
2022/07/14 09:33:08;;;;;;;7.55;0.95;;;;;;;45.78;13.73;101192.38;4930793;29;20059;-79
2022/07/14 09:35:53;;;;;;;11.25;1.10;;;;;;;46.63;12.01;101187.34;4930586;29;20043;-79
2022/07/14 09:38:45;;;;;;;9.23;1.35;;;;;;;43.24;13.47;101169.31;4926922;29;20047;-79
2022/07/14 09:41:33;;;;;;;9.93;1.52;;;;;;;43.96;13.33;101180.16;4935353;29;20047;-79
2022/07/14 09:44:19;;;;;;;6.85;1.15;;;;;;;44.55;13.75;101173.44;4932161;29;20409;-79
2022/07/14 09:47:04;;;;;;;12.80;1.10;;;;;;;44.28;14.25;101178.22;4936805;29;20063;-78
2022/07/14 09:49:49;;;;;;;1.55;0.70;;;;;;;42.62;13.37;101166.03;4918206;29;20056;-79
2022/07/14 09:52:34;;;;;;;3.45;0.68;;;;;;;43.69;12.70;101164.75;4913620;29;20051;-78
2022/07/14 09:55:23;;;;;;;4.30;0.55;;;;;;;42.65;12.80;101159.28;4909699;29;20070;-79
2022/07/14 09:58:09;;;;;;;5.93;0.77;;;;;;;42.34;13.59;101156.84;4911150;29;20059;-81
2022/07/14 10:00:59;;;;;;;21.23;1.23;;;;;;;45.25;11.09;101168.50;4911817;29;20048;-81
2022/07/14 10:03:49;;;;;;;20.23;1.60;;;;;;;44.77;12.21;101162.97;4915923;29;20036;-78
2022/07/14 10:06:34;;;;;;;4.25;0.90;;;;;;;40.18;15.83;101148.34;4930510;29;20032;-75
2022/07/14 10:09:19;;;;;;;2.97;0.70;;;;;;;36.54;20.37;101136.97;4915828;29;20142;-78
2022/07/14 10:12:05;;;;;;;3.97;0.82;;;;;;;35.16;21.78;101123.97;4917196;29;20059;-79
2022/07/14 10:14:50;;;;;;;1.60;0.90;;;;;;;34.79;23.54;101133.78;4929568;29;20055;-79
2022/07/14 10:17:37;;;;;;;3.95;1.00;;;;;;;33.71;22.47;101139.53;4921961;29;20055;-78
2022/07/14 10:20:22;;;;;;;3.05;0.52;;;;;;;33.52;22.65;101129.41;4919796;29;20070;-77
2022/07/14 10:23:07;;;;;;;5.32;1.10;;;;;;;34.21;20.99;101123.38;4942359;28;20079;-78
2022/07/14 10:25:55;;;;;;;6.53;0.85;;;;;;;34.25;23.24;101115.53;4593202;23;20064;-77
2022/07/14 10:28:42;;;;;;;2.45;0.60;;;;;;;33.35;23.92;101106.31;4920576;29;20055;-75
2022/07/14 10:31:36;;;;;;;6.70;0.88;;;;;;;33.41;24.91;101106.47;4938374;28;20055;-75
2022/07/14 10:34:57;;;;;;;6.05;0.63;;;;;;;33.26;24.12;101097.00;4934793;29;20050;-77
2022/07/14 10:38:19;;;;;;;3.72;1.05;;;;;;;33.24;25.89;101096.69;4944693;28;20046;-77
2022/07/14 10:41:43;;;;;;;3.67;0.50;;;;;;;32.82;24.02;101097.03;4940352;28;20043;-76
2022/07/14 10:44:34;;;;;;;4.40;0.70;;;;;;;32.87;24.81;101102.06;4934141;29;20058;-77
2022/07/14 10:47:22;;;;;;;2.78;0.88;;;;;;;32.71;25.41;101093.84;4938807;28;20074;-76
2022/07/14 10:50:18;;;;;;;33.75;1.67;;;;;;;32.79;26.76;101083.09;4940644;28;20051;-75
2022/07/14 10:53:04;;;;;;;5.25;0.80;;;;;;;33.04;26.89;101086.53;4938025;28;20043;-75
2022/07/14 10:55:50;;;;;;;3.92;0.63;;;;;;;32.97;26.73;101086.78;4930958;29;20424;-75
2022/07/14 10:58:35;;;;;;;6.07;0.60;;;;;;;32.77;25.03;101083.53;4931796;28;20062;-75
2022/07/14 11:01:20;;;;;;;4.13;0.63;;;;;;;32.81;26.11;101077.78;4929469;28;20058;-75
2022/07/14 11:04:06;;;;;;;3.15;2.05;;;;;;;32.85;26.09;101076.41;4940820;28;20427;-75
2022/07/14 11:07:29;;;;;;;7.32;0.90;;;;;;;32.71;27.00;101079.75;4921053;29;20424;-76
2022/07/14 11:10:14;;;;;;;3.03;0.60;;;;;;;32.84;27.84;101076.84;4927572;29;20535;-77
2022/07/14 11:12:59;;;;;;;8.38;0.88;;;;;;;32.86;25.75;101075.16;4923083;29;20066;-75
2022/07/14 11:15:52;;;;;;;10.20;1.02;;;;;;;32.87;26.50;101071.06;4948298;28;20046;-75
2022/07/14 11:18:41;;;;;;;7.35;1.15;;;;;;;33.15;25.74;101071.25;4934659;29;20044;-75
2022/07/14 11:21:28;;;;;;;1.58;0.60;;;;;;;32.97;25.15;101071.91;4933864;29;20531;-77
2022/07/14 11:24:13;;;;;;;2.17;0.60;;;;;;;32.92;25.52;101069.69;4934238;29;20428;-75
2022/07/14 11:27:24;;;;;;;1.98;0.80;;;;;;;33.15;25.17;101068.41;4936465;29;20050;-76
2022/07/14 11:30:18;;;;;;;6.28;0.75;;;;;;;33.28;25.02;101063.50;4931091;29;20046;-76
2022/07/14 11:33:09;;;;;;;1.17;0.68;;;;;;;33.28;24.69;101064.28;4933392;29;20054;-75
2022/07/14 11:39:20;;;;;;;4.63;0.85;;;;;;;33.24;26.47;101066.44;4929862;29;20249;-78
2022/07/14 11:42:11;;;;;;;4.95;0.90;;;;;;;33.18;25.65;101053.41;4935933;29;20055;-76
2022/07/14 11:44:56;;;;;;;15.43;0.82;;;;;;;33.56;25.67;101051.06;4934177;29;20051;-75
2022/07/14 11:47:41;;;;;;;8.50;0.90;;;;;;;33.31;25.55;101054.13;4938280;29;20043;-77
2022/07/14 11:50:27;;;;;;;4.60;0.90;;;;;;;33.31;25.76;101045.66;4935454;29;20080;-77
2022/07/14 11:53:13;;;;;;;2.10;0.70;;;;;;;33.55;25.52;101046.66;4932865;29;20412;-75
2022/07/14 11:56:02;;;;;;;7.07;1.00;;;;;;;33.53;25.88;101047.13;4935113;28;20048;-77
2022/07/14 11:58:48;;;;;;;4.38;1.15;;;;;;;33.73;24.84;101043.16;4928767;29;20046;-75
2022/07/14 12:01:35;;;;;;;2.65;0.70;;;;;;;33.65;26.27;101022.88;4926648;29;20050;-76
2022/07/14 12:04:20;;;;;;;4.00;0.75;;;;;;;33.63;26.36;101028.19;4919693;28;20335;-74
2022/07/14 12:07:05;;;;;;;5.65;1.05;;;;;;;33.52;26.39;101022.22;4917026;29;20062;-77
2022/07/14 12:09:51;;;;;;;2.88;1.00;;;;;;;33.34;27.09;101016.53;4916244;29;20295;-75
2022/07/14 12:12:45;;;;;;;9.75;1.10;;;;;;;33.32;26.63;101024.69;4928270;29;20050;-75
2022/07/14 12:15:31;;;;;;;3.60;0.85;;;;;;;33.64;26.65;101021.31;4914300;29;20116;-75
2022/07/14 12:18:16;;;;;;;10.15;0.95;;;;;;;33.55;26.49;101024.09;4940811;28;20059;-78
2022/07/14 12:21:01;;;;;;;6.65;1.00;;;;;;;33.71;26.78;101018.22;4950165;28;20050;-76
2022/07/14 12:23:55;;;;;;;5.00;0.93;;;;;;;33.84;26.79;101027.31;4948190;28;20050;-75
2022/07/14 12:26:40;;;;;;;4.57;0.90;;;;;;;33.42;25.27;101024.22;4913579;29;20421;-74
2022/07/14 12:29:25;;;;;;;1.75;0.80;;;;;;;33.50;25.50;101021.91;4914997;29;20055;-75
2022/07/14 12:32:09;;;;;;;1.52;1.05;;;;;;;33.72;26.21;101013.38;4914590;29;20055;-75
2022/07/14 12:34:55;;;;;;;7.38;1.27;;;;;;;33.63;26.41;101007.66;4921401;29;20440;-77
2022/07/14 12:37:43;;;;;;;3.20;1.10;;;;;;;33.63;26.65;101008.44;4927397;29;20058;-75
2022/07/14 12:40:28;;;;;;;3.72;1.80;;;;;;;33.81;25.65;101011.34;4938685;28;20063;-75
2022/07/14 12:43:13;;;;;;;7.85;1.58;;;;;;;33.57;26.10;101007.50;4933699;29;20208;-78
2022/07/14 12:46:03;;;;;;;2.50;1.10;;;;;;;33.52;26.32;101005.31;4937368;29;20523;-76
2022/07/14 12:48:53;;;;;;;23.00;2.08;;;;;;;33.64;26.00;101000.75;4935846;29;20059;-75
2022/07/14 12:51:43;;;;;;;5.15;1.25;;;;;;;33.56;26.23;101003.13;4936175;29;20051;-75
2022/07/14 12:54:33;;;;;;;3.42;1.23;;;;;;;33.69;27.35;101003.78;4936463;29;20080;-76
2022/07/14 12:57:22;;;;;;;10.55;1.10;;;;;;;33.83;27.53;100986.22;4940645;29;20055;-75
2022/07/14 13:00:14;;;;;;;8.73;1.10;;;;;;;33.85;27.48;100989.38;4939261;28;20110;-75
2022/07/14 13:03:16;;;;;;;8.48;1.10;;;;;;;33.94;26.92;100985.78;4939659;28;20046;-75
2022/07/14 13:06:02;;;;;;;4.25;0.88;;;;;;;34.11;25.65;100977.78;4936865;29;20060;-75